Accueil
METAR-TAF:

METAR-TAF

Aéroports :

Caen, France

Aéroport de Caen - Carpiquet

latitude: 49-11N, longitude: 000-27W, altitude: 78 m

Observation

Le bulletin a été fait il y a 34 minutes, à 00:00 UTC
Vent 3 kt de nord
Température -2°C
Humidité 80%
Pression 1015 hPa
Visibilité 10 km ou plus
pas de nuages en-dessous de 1500 mètres et pas de cumulonimbus.

METAR: LFRK 240000Z AUTO 01003KT CAVOK M02/M05 Q1015

Heure: 01:34 (00:34 UTC)

Prévision

Le bulletin a été fait il y a 10 heures et 34 minutes, à 14:00 UTC
Prévision valable du 23 à 15 UTC au 23 à 24 UTC
Vent 10 kt de nord-est
Visibilité 10 km ou plus
pas de nuages en-dessous de 1500 mètres et pas de cumulonimbus.

TAF: LFRK 231400Z 2315/2324 05010KT CAVOK

Observations et prévisions météorologiques de plus de 4000 aéroports (messages METAR et TAF).

Les stations disponibles sont représentées par des disques jaunes et rouges sur la carte.

Passer la souris dessus pour voir le nom de la station.

Cliquer dessus pour voir les observations et prévisions météorologiques.

Pour changer de carte: cliquez sur les boutons verts avec une croix noire pour zoomer, sur le bouton vert avec un tiret pour effectuer un zoom arrière, ou sur les flèches vertes pour les cartes adjacentes.


METAR-TAF: